Time;durP1;ratioP1;P1;durP2;ratioP2;P2;SDS_P1;SDS_P2;PMS_P1;PMS_P2;Temp;Humidity;BMP_temperature;BMP_pressure;BME280_temperature;BME280_humidity;BME280_pressure;Samples;Min_cycle;Max_cycle;Signal;HPM_P1;HPM_P2
2021/04/09 00:00:17;;;;;;;19.63;12.53;;;6.00;55.50;;;;;;5049076;28;20056;-69
2021/04/09 00:02:43;;;;;;;17.40;12.13;;;6.00;56.00;;;;;;5048808;28;20037;-69
2021/04/09 00:05:11;;;;;;;19.30;13.30;;;6.00;55.60;;;;;;5050573;28;20040;-68
2021/04/09 00:07:37;;;;;;;19.37;12.63;;;6.10;55.60;;;;;;5050244;28;20552;-68
2021/04/09 00:10:08;;;;;;;18.33;12.50;;;6.10;55.60;;;;;;5048984;28;20052;-69
2021/04/09 00:12:34;;;;;;;17.80;12.32;;;6.10;55.70;;;;;;5050290;28;20115;-69
2021/04/09 00:15:00;;;;;;;18.37;12.40;;;6.10;55.60;;;;;;5050059;28;20115;-69
2021/04/09 00:17:25;;;;;;;19.27;12.43;;;6.10;55.60;;;;;;5048794;28;20580;-69
2021/04/09 00:19:51;;;;;;;17.20;11.83;;;6.20;55.50;;;;;;5050249;28;20032;-69
2021/04/09 00:22:17;;;;;;;19.80;12.60;;;6.10;55.40;;;;;;5048265;28;20045;-69
2021/04/09 00:24:42;;;;;;;18.87;11.77;;;6.10;55.40;;;;;;5050139;28;20039;-68
2021/04/09 00:27:08;;;;;;;21.63;12.37;;;6.10;55.30;;;;;;5049840;28;20033;-69
2021/04/09 00:29:34;;;;;;;19.57;12.73;;;6.10;55.30;;;;;;5049192;28;20040;-69
2021/04/09 00:31:59;;;;;;;18.67;12.23;;;6.10;55.30;;;;;;5048628;28;20029;-69
2021/04/09 00:34:25;;;;;;;19.50;12.23;;;6.10;55.30;;;;;;5049682;28;20055;-69
2021/04/09 00:36:51;;;;;;;22.53;12.30;;;6.10;55.30;;;;;;5065175;28;20405;-69
2021/04/09 00:39:16;;;;;;;17.93;12.10;;;6.10;55.40;;;;;;5048479;28;20041;-69
2021/04/09 00:41:42;;;;;;;17.27;12.27;;;6.10;55.30;;;;;;5049542;28;20497;-69
2021/04/09 00:44:10;;;;;;;18.37;12.43;;;6.10;55.30;;;;;;5048617;28;20094;-69
2021/04/09 00:46:37;;;;;;;18.70;11.93;;;6.10;55.20;;;;;;5049174;28;20120;-68
2021/04/09 00:49:04;;;;;;;18.80;11.60;;;6.10;55.20;;;;;;5049663;28;20049;-69
2021/04/09 00:51:30;;;;;;;20.33;12.00;;;6.10;55.30;;;;;;5048252;28;20091;-69
2021/04/09 00:53:57;;;;;;;18.23;12.17;;;6.10;55.30;;;;;;5049377;28;20037;-69
2021/04/09 00:56:28;;;;;;;18.93;11.93;;;6.10;55.30;;;;;;5064882;28;20033;-69
2021/04/09 00:58:56;;;;;;;16.87;11.87;;;6.10;55.30;;;;;;5064473;28;20057;-69
2021/04/09 01:01:23;;;;;;;17.57;11.57;;;6.10;55.30;;;;;;5049312;28;20041;-69
2021/04/09 01:03:51;;;;;;;18.63;11.87;;;6.10;55.30;;;;;;5048634;28;20511;-67
2021/04/09 01:06:18;;;;;;;21.10;12.00;;;6.10;55.80;;;;;;5049425;28;20466;-69
2021/04/09 01:08:45;;;;;;;18.33;11.97;;;6.20;55.30;;;;;;5064482;28;20124;-69
2021/04/09 01:11:10;;;;;;;18.10;11.70;;;6.20;55.30;;;;;;5048637;28;20045;-70
2021/04/09 01:13:36;;;;;;;17.67;12.10;;;6.20;55.80;;;;;;5049320;28;20044;-69
2021/04/09 01:16:06;;;;;;;18.37;12.27;;;6.20;55.30;;;;;;5048839;28;20056;-69
2021/04/09 01:18:56;;;;;;;20.13;12.47;;;6.20;55.20;;;;;;5063973;28;20545;-69
2021/04/09 01:21:48;;;;;;;17.50;12.52;;;6.20;55.20;;;;;;5048419;28;20048;-70
2021/04/09 01:24:45;;;;;;;18.77;11.87;;;6.20;55.20;;;;;;5048997;28;20051;-69
2021/04/09 01:27:39;;;;;;;18.10;11.87;;;6.20;55.20;;;;;;5049115;28;20071;-70
2021/04/09 01:30:43;;;;;;;18.97;12.07;;;6.20;55.20;;;;;;5048339;28;20029;-68
2021/04/09 01:33:09;;;;;;;19.00;11.40;;;6.20;55.10;;;;;;5048563;28;20056;-69
2021/04/09 01:35:40;;;;;;;19.53;11.57;;;6.10;55.00;;;;;;5047748;28;20044;-69
2021/04/09 01:38:07;;;;;;;18.02;12.07;;;6.10;55.00;;;;;;5048754;28;20515;-69
2021/04/09 01:40:38;;;;;;;19.00;11.97;;;6.10;55.00;;;;;;5048868;28;20116;-69
2021/04/09 01:43:07;;;;;;;19.23;12.30;;;6.10;55.10;;;;;;5049228;28;20037;-69
2021/04/09 01:45:33;;;;;;;20.13;12.13;;;6.10;55.20;;;;;;5064123;28;20280;-69
2021/04/09 01:48:00;;;;;;;17.40;12.43;;;6.10;55.30;;;;;;5048857;28;20044;-68
2021/04/09 01:50:30;;;;;;;22.13;12.50;;;6.10;55.30;;;;;;5048528;28;20037;-68
2021/04/09 01:52:57;;;;;;;21.03;12.53;;;6.10;55.40;;;;;;5048985;28;20041;-69
2021/04/09 01:55:23;;;;;;;20.67;12.00;;;6.10;55.40;;;;;;5063754;28;20468;-68
2021/04/09 01:57:51;;;;;;;19.00;12.17;;;6.10;55.40;;;;;;5048642;28;20128;-69
2021/04/09 02:00:24;;;;;;;19.40;12.20;;;6.10;55.40;;;;;;5064152;28;20045;-68
2021/04/09 02:02:51;;;;;;;17.63;12.50;;;6.10;55.50;;;;;;5063443;28;20045;-68
2021/04/09 02:05:19;;;;;;;20.43;12.90;;;6.00;55.50;;;;;;5049019;28;20116;-69
2021/04/09 02:07:46;;;;;;;20.63;13.17;;;6.00;55.50;;;;;;5048474;28;20041;-69
2021/04/09 02:10:13;;;;;;;22.47;13.30;;;6.00;55.60;;;;;;5048550;28;20045;-69
2021/04/09 02:12:42;;;;;;;19.43;12.37;;;6.00;55.70;;;;;;5047391;28;20040;-69
2021/04/09 02:15:13;;;;;;;17.90;12.07;;;5.90;55.70;;;;;;5048522;28;20493;-70
2021/04/09 02:17:39;;;;;;;21.37;12.53;;;5.90;55.80;;;;;;5050258;28;20132;-68
2021/04/09 02:20:17;;;;;;;20.30;12.00;;;5.90;55.90;;;;;;5050555;28;20116;-68
2021/04/09 02:22:50;;;;;;;21.97;12.30;;;5.90;55.90;;;;;;5052345;28;20485;-68
2021/04/09 02:25:19;;;;;;;21.00;12.23;;;5.90;55.90;;;;;;5051866;28;20033;-68
2021/04/09 02:27:45;;;;;;;18.93;13.10;;;5.80;56.00;;;;;;5052713;28;20421;-69
2021/04/09 02:30:11;;;;;;;22.30;11.90;;;5.80;56.00;;;;;;5051986;28;20037;-68
2021/04/09 02:32:37;;;;;;;20.90;12.10;;;5.80;56.10;;;;;;5067366;28;20091;-69
2021/04/09 02:35:05;;;;;;;20.53;12.70;;;5.80;56.10;;;;;;5050997;28;20447;-69
2021/04/09 02:37:31;;;;;;;18.60;12.20;;;5.80;56.20;;;;;;5050483;28;20508;-68
2021/04/09 02:40:01;;;;;;;19.73;12.20;;;5.80;56.20;;;;;;5052282;28;20064;-69
2021/04/09 02:42:27;;;;;;;21.60;11.82;;;5.80;56.20;;;;;;5067181;28;20033;-66
2021/04/09 02:44:54;;;;;;;17.77;11.80;;;5.80;56.10;;;;;;5052003;28;20040;-69
2021/04/09 02:47:22;;;;;;;19.07;12.07;;;5.80;56.20;;;;;;5075401;22;20438;-65
2021/04/09 02:50:03;;;;;;;20.57;11.57;;;5.80;56.20;;;;;;5022329;28;20126;-66
2021/04/09 02:52:32;;;;;;;19.13;11.80;;;5.80;56.20;;;;;;5015720;28;20038;-65
2021/04/09 02:55:01;;;;;;;21.33;12.57;;;5.80;56.20;;;;;;5011740;28;20065;-66
2021/04/09 02:57:29;;;;;;;21.43;12.43;;;5.70;56.20;;;;;;4961940;28;20038;-66
2021/04/09 02:59:57;;;;;;;18.23;12.17;;;5.60;56.20;;;;;;5004094;28;20037;-64
2021/04/09 03:02:24;;;;;;;18.93;12.30;;;5.60;56.30;;;;;;5031657;28;20061;-64
2021/04/09 03:04:51;;;;;;;19.43;12.20;;;5.60;56.30;;;;;;5005933;28;20077;-64
2021/04/09 03:07:18;;;;;;;19.57;12.77;;;5.60;56.40;;;;;;5031114;28;20034;-64
2021/04/09 03:09:43;;;;;;;19.83;12.17;;;5.50;56.50;;;;;;5005872;28;20037;-64
2021/04/09 03:12:16;;;;;;;20.87;12.53;;;5.50;56.60;;;;;;5030850;28;20497;-64
2021/04/09 03:14:43;;;;;;;21.80;12.87;;;5.40;56.70;;;;;;5031447;28;20029;-64
2021/04/09 03:17:14;;;;;;;22.50;11.97;;;5.40;56.70;;;;;;5005407;28;20516;-65
2021/04/09 03:19:39;;;;;;;;;;;5.30;56.80;;;;;;5032215;28;20254;-65
2021/04/09 03:22:12;;;;;;;19.77;12.33;;;5.30;57.00;;;;;;5005226;28;20432;-66
2021/04/09 03:24:38;;;;;;;19.10;12.07;;;5.30;57.10;;;;;;5010749;28;20034;-66
2021/04/09 03:27:05;;;;;;;19.77;11.80;;;5.20;57.10;;;;;;5011102;28;20514;-66
2021/04/09 03:29:31;;;;;;;19.27;12.47;;;5.20;57.30;;;;;;5010886;28;20038;-65
2021/04/09 03:31:57;;;;;;;21.27;12.53;;;5.20;57.50;;;;;;5011421;28;20041;-66
2021/04/09 03:34:22;;;;;;;18.57;12.77;;;5.20;57.50;;;;;;5011644;28;20053;-66
2021/04/09 03:36:48;;;;;;;20.20;12.33;;;5.10;57.50;;;;;;5029735;28;20041;-68
2021/04/09 03:39:14;;;;;;;21.83;12.83;;;5.10;57.60;;;;;;5007230;28;20079;-70
2021/04/09 03:41:39;;;;;;;19.30;12.53;;;5.10;57.90;;;;;;5019451;28;20566;-68
2021/04/09 03:44:05;;;;;;;19.90;12.00;;;5.20;58.10;;;;;;5009990;28;20038;-70
2021/04/09 03:46:31;;;;;;;22.53;12.80;;;5.30;58.20;;;;;;5009968;28;20034;-71
2021/04/09 03:48:56;;;;;;;21.47;13.37;;;5.30;58.10;;;;;;5008876;28;20079;-69
2021/04/09 03:51:22;;;;;;;19.70;12.80;;;5.40;58.10;;;;;;5009469;28;20068;-68
2021/04/09 03:53:48;;;;;;;20.30;12.27;;;5.40;58.00;;;;;;4993395;28;20038;-69
2021/04/09 03:56:14;;;;;;;18.83;12.17;;;5.40;58.00;;;;;;5010626;28;20049;-69
2021/04/09 03:58:39;;;;;;;19.30;12.23;;;5.50;57.90;;;;;;5027003;28;20037;-69
2021/04/09 04:01:05;;;;;;;20.83;12.37;;;5.50;57.90;;;;;;5012360;28;20061;-68
2021/04/09 04:03:30;;;;;;;20.40;12.27;;;5.50;57.80;;;;;;5029464;28;20485;-69
2021/04/09 04:05:56;;;;;;;22.27;12.60;;;5.50;57.80;;;;;;5003875;28;20459;-66
2021/04/09 04:08:22;;;;;;;19.57;12.27;;;5.50;57.80;;;;;;5008101;28;20075;-66
2021/04/09 04:10:47;;;;;;;24.10;12.70;;;5.50;57.80;;;;;;5030191;28;20026;-66
2021/04/09 04:13:13;;;;;;;22.83;12.80;;;5.50;57.80;;;;;;5028683;28;20083;-66
2021/04/09 04:15:39;;;;;;;21.33;12.87;;;5.50;57.80;;;;;;5030480;28;20037;-65
2021/04/09 04:18:04;;;;;;;23.30;12.73;;;5.50;57.90;;;;;;5030384;28;20088;-66
2021/04/09 04:20:30;;;;;;;19.83;12.27;;;5.40;57.90;;;;;;4991655;28;20494;-66
2021/04/09 04:22:56;;;;;;;20.20;12.37;;;5.40;58.00;;;;;;5014201;28;20204;-65
2021/04/09 04:25:21;;;;;;;21.13;12.77;;;5.40;58.00;;;;;;5030384;28;20045;-66
2021/04/09 04:27:47;;;;;;;19.97;11.70;;;5.50;58.00;;;;;;5012091;28;20112;-64
2021/04/09 04:30:14;;;;;;;19.43;11.93;;;5.50;58.00;;;;;;5028812;28;20057;-65
2021/04/09 04:32:39;;;;;;;22.17;12.73;;;5.40;58.00;;;;;;5011798;28;20047;-64
2021/04/09 04:35:06;;;;;;;21.13;12.27;;;5.40;58.00;;;;;;5028796;28;20030;-64
2021/04/09 04:37:31;;;;;;;19.03;11.77;;;5.50;58.10;;;;;;5028516;28;20038;-64
2021/04/09 04:39:57;;;;;;;17.30;11.37;;;5.50;58.10;;;;;;5027487;28;20099;-64
2021/04/09 04:42:23;;;;;;;19.63;11.70;;;5.50;58.10;;;;;;5011897;28;20040;-64
2021/04/09 04:44:48;;;;;;;19.47;11.80;;;5.50;58.20;;;;;;5028372;28;20034;-64
2021/04/09 04:47:14;;;;;;;20.70;12.20;;;5.50;58.20;;;;;;5027893;28;20025;-64
2021/04/09 04:49:39;;;;;;;20.00;11.63;;;5.50;58.70;;;;;;5012277;28;20025;-64
2021/04/09 04:52:05;;;;;;;18.00;11.70;;;5.50;58.10;;;;;;5027671;28;20478;-64
2021/04/09 04:54:31;;;;;;;18.47;11.20;;;5.50;58.20;;;;;;5029998;28;20038;-64
2021/04/09 04:56:57;;;;;;;19.87;12.00;;;5.60;58.30;;;;;;5029573;28;20087;-64
2021/04/09 04:59:23;;;;;;;21.40;11.67;;;5.50;58.20;;;;;;4999659;28;20119;-66
2021/04/09 05:01:48;;;;;;;20.37;11.60;;;5.60;58.30;;;;;;5008221;28;20042;-68
2021/04/09 05:04:14;;;;;;;21.17;11.43;;;5.60;58.30;;;;;;5009677;28;20042;-70
2021/04/09 05:06:39;;;;;;;18.53;10.90;;;5.60;58.30;;;;;;5009976;28;20521;-68
2021/04/09 05:09:06;;;;;;;20.67;11.53;;;5.60;58.30;;;;;;5009756;28;20176;-68
2021/04/09 05:11:32;;;;;;;22.70;11.57;;;5.60;58.40;;;;;;5009055;28;20045;-69
2021/04/09 05:13:58;;;;;;;19.57;12.10;;;5.60;58.40;;;;;;5009724;28;20034;-69
2021/04/09 05:16:24;;;;;;;22.53;11.87;;;5.60;58.40;;;;;;5009858;28;20042;-69
2021/04/09 05:18:49;;;;;;;19.80;11.30;;;5.60;58.50;;;;;;5009107;28;20053;-70
2021/04/09 05:21:15;;;;;;;20.33;11.60;;;5.60;58.50;;;;;;5009530;28;20061;-66
2021/04/09 05:23:40;;;;;;;18.93;11.23;;;5.60;58.60;;;;;;5009219;28;20060;-66
2021/04/09 05:26:06;;;;;;;19.73;11.23;;;5.70;58.60;;;;;;5008480;28;20045;-66
2021/04/09 05:28:32;;;;;;;19.00;11.47;;;5.70;58.70;;;;;;4992032;28;20064;-66
2021/04/09 05:30:57;;;;;;;21.30;11.43;;;5.70;58.50;;;;;;5008852;28;20026;-65
2021/04/09 05:33:24;;;;;;;19.23;11.30;;;5.80;58.60;;;;;;5016715;28;20087;-66
2021/04/09 05:35:50;;;;;;;21.00;10.70;;;5.70;58.60;;;;;;5018399;28;20060;-66
2021/04/09 05:38:16;;;;;;;20.60;11.53;;;5.80;58.60;;;;;;5008878;28;20498;-66
2021/04/09 05:40:42;;;;;;;20.97;11.47;;;5.80;58.60;;;;;;5007192;28;20037;-66
2021/04/09 05:43:07;;;;;;;18.30;11.10;;;5.80;58.70;;;;;;5008143;28;20050;-66
2021/04/09 05:45:33;;;;;;;20.00;11.97;;;5.80;58.80;;;;;;4991574;28;20085;-67
2021/04/09 05:48:06;;;;;;;20.77;11.80;;;5.80;58.80;;;;;;5007862;28;20052;-63
2021/04/09 05:50:36;;;;;;;17.27;10.73;;;5.90;58.80;;;;;;5017016;28;20038;-63
2021/04/09 05:53:02;;;;;;;18.33;11.17;;;5.90;58.90;;;;;;5013373;28;20088;-64
2021/04/09 05:55:28;;;;;;;19.20;11.03;;;5.90;58.90;;;;;;5021093;28;21947;-64
2021/04/09 05:57:54;;;;;;;19.97;11.17;;;5.90;58.90;;;;;;5031986;28;20532;-64
2021/04/09 06:00:20;;;;;;;18.43;11.77;;;5.90;59.00;;;;;;5031180;28;20029;-63
2021/04/09 06:02:46;;;;;;;20.07;11.13;;;5.90;59.00;;;;;;5032688;28;20037;-63
2021/04/09 06:05:12;;;;;;;20.90;11.63;;;5.90;59.10;;;;;;5014959;28;20168;-63
2021/04/09 06:07:38;;;;;;;18.20;11.83;;;5.90;59.10;;;;;;5031230;28;20048;-63
2021/04/09 06:10:07;;;;;;;21.73;11.17;;;5.90;59.10;;;;;;5033247;28;20036;-64
2021/04/09 06:12:36;;;;;;;16.13;10.37;;;5.90;59.20;;;;;;5032227;28;20037;-64
2021/04/09 06:15:02;;;;;;;19.07;11.77;;;5.90;59.30;;;;;;5032873;28;20556;-63
2021/04/09 06:17:28;;;;;;;19.33;11.30;;;5.90;59.40;;;;;;5031309;28;20099;-63
2021/04/09 06:19:53;;;;;;;18.93;11.50;;;5.90;59.40;;;;;;5030822;28;20034;-64
2021/04/09 06:22:19;;;;;;;19.53;11.10;;;5.90;59.40;;;;;;4999578;28;20049;-63
2021/04/09 06:24:45;;;;;;;19.33;11.80;;;5.90;59.50;;;;;;5012100;28;20030;-64
2021/04/09 06:27:10;;;;;;;21.40;11.20;;;6.00;59.60;;;;;;5011640;28;20565;-63
2021/04/09 06:29:37;;;;;;;19.17;11.67;;;6.00;59.60;;;;;;5012784;28;20030;-63
2021/04/09 06:32:03;;;;;;;19.10;11.60;;;6.00;59.70;;;;;;5011921;28;20041;-63
2021/04/09 06:34:29;;;;;;;19.80;11.63;;;6.10;59.90;;;;;;5012673;28;20444;-63
2021/04/09 06:36:55;;;;;;;19.27;11.30;;;6.10;59.80;;;;;;5030629;28;20117;-63
2021/04/09 06:39:21;;;;;;;18.87;11.97;;;6.20;59.90;;;;;;5025047;28;20077;-63
2021/04/09 06:41:46;;;;;;;18.83;11.37;;;6.30;59.90;;;;;;5010709;28;20030;-64
2021/04/09 06:44:12;;;;;;;21.50;11.67;;;6.30;60.00;;;;;;5010002;28;20057;-63
2021/04/09 06:46:39;;;;;;;17.57;11.03;;;6.40;60.10;;;;;;5029653;28;20048;-64
2021/04/09 06:49:06;;;;;;;18.20;11.50;;;6.50;60.30;;;;;;5031916;28;20041;-63
2021/04/09 06:51:33;;;;;;;18.47;11.27;;;6.60;60.50;;;;;;5023090;28;20088;-63
2021/04/09 06:54:01;;;;;;;20.00;11.13;;;6.70;60.10;;;;;;5012677;28;20125;-63
2021/04/09 06:56:29;;;;;;;21.33;11.23;;;6.70;60.00;;;;;;4994173;28;20072;-63
2021/04/09 06:58:56;;;;;;;19.53;11.87;;;6.80;59.90;;;;;;5010577;28;20328;-63
2021/04/09 07:01:24;;;;;;;19.00;11.77;;;6.90;60.00;;;;;;5011590;28;20046;-63
2021/04/09 07:03:54;;;;;;;19.13;11.07;;;7.00;59.90;;;;;;5010795;28;20030;-66
2021/04/09 07:06:20;;;;;;;21.00;11.67;;;7.10;59.90;;;;;;5012265;28;20038;-63
2021/04/09 07:08:45;;;;;;;17.83;11.77;;;7.20;60.10;;;;;;5012748;28;20033;-66
2021/04/09 07:11:11;;;;;;;18.90;11.53;;;7.20;59.30;;;;;;5012853;28;20053;-66
2021/04/09 07:13:48;;;;;;;17.97;11.03;;;7.20;59.30;;;;;;5013322;28;20034;-67
2021/04/09 07:16:14;;;;;;;18.57;11.43;;;7.20;59.30;;;;;;4995303;28;20066;-64
2021/04/09 07:18:51;;;;;;;17.83;11.30;;;7.20;59.20;;;;;;5012973;28;20072;-69
2021/04/09 07:21:34;;;;;;;20.07;11.70;;;7.20;59.30;;;;;;4994743;28;20034;-68
2021/04/09 07:24:17;;;;;;;20.10;11.47;;;7.30;59.60;;;;;;5012455;28;20032;-66
2021/04/09 07:26:50;;;;;;;19.50;11.20;;;7.30;59.40;;;;;;5011580;28;20092;-68
2021/04/09 07:29:31;;;;;;;18.13;11.17;;;7.40;59.40;;;;;;5012426;28;20092;-64
2021/04/09 07:32:20;;;;;;;;;;;7.40;59.20;;;;;;5012880;28;20029;-66
2021/04/09 07:35:03;;;;;;;20.77;11.97;;;7.50;59.40;;;;;;5012329;28;19921;-69
2021/04/09 07:37:59;;;;;;;19.93;11.57;;;7.60;59.10;;;;;;5013427;28;20497;-68
2021/04/09 07:40:31;;;;;;;18.60;11.73;;;7.80;59.10;;;;;;5011044;28;20498;-63
2021/04/09 07:42:58;;;;;;;17.43;11.80;;;7.90;59.10;;;;;;4994759;28;20146;-66
2021/04/09 07:45:29;;;;;;;19.20;11.53;;;8.00;58.90;;;;;;5011332;28;20486;-66
2021/04/09 07:48:02;;;;;;;18.95;11.77;;;8.10;59.10;;;;;;5010766;28;20112;-69
2021/04/09 07:50:41;;;;;;;19.97;11.90;;;8.20;58.80;;;;;;5011657;28;20129;-69
2021/04/09 07:53:09;;;;;;;18.47;10.83;;;8.40;58.80;;;;;;5012215;28;20048;-64
2021/04/09 07:55:36;;;;;;;19.70;11.77;;;8.50;58.60;;;;;;5012854;28;20037;-64
2021/04/09 07:58:33;;;;;;;20.50;11.77;;;8.70;58.70;;;;;;5012069;28;20049;-68
2021/04/09 08:00:59;;;;;;;19.37;11.30;;;9.00;58.60;;;;;;4996354;28;20026;-69
2021/04/09 08:03:39;;;;;;;18.20;10.97;;;9.30;58.40;;;;;;5011439;28;20117;-68
2021/04/09 08:06:26;;;;;;;19.20;10.73;;;9.50;57.70;;;;;;5011161;28;20528;-63
2021/04/09 08:08:57;;;;;;;17.80;10.13;;;9.70;57.20;;;;;;5010888;28;20537;-65
2021/04/09 08:11:28;;;;;;;19.10;11.23;;;9.80;56.90;;;;;;5012163;28;20030;-67
2021/04/09 08:13:59;;;;;;;18.90;11.75;;;9.90;56.60;;;;;;5012881;28;20030;-64
2021/04/09 08:16:44;;;;;;;17.98;11.57;;;9.90;56.20;;;;;;5012204;28;20034;-66
2021/04/09 08:19:15;;;;;;;17.92;11.30;;;10.00;56.40;;;;;;5012391;28;20124;-66
2021/04/09 08:21:44;;;;;;;18.55;11.52;;;10.10;55.90;;;;;;5013169;28;20030;-64
2021/04/09 08:24:11;;;;;;;19.92;10.98;;;10.30;56.20;;;;;;5012292;28;20030;-67
2021/04/09 08:26:38;;;;;;;17.63;9.95;;;10.70;56.50;;;;;;5011996;28;20084;-66
2021/04/09 08:29:11;;;;;;;20.58;10.73;;;11.10;55.70;;;;;;5012207;28;20033;-66
2021/04/09 08:31:38;;;;;;;17.25;10.30;;;11.60;55.80;;;;;;5011528;28;20049;-66
2021/04/09 08:34:08;;;;;;;15.75;10.05;;;12.10;54.70;;;;;;5012148;28;20038;-66
2021/04/09 08:36:37;;;;;;;18.93;10.43;;;12.80;54.70;;;;;;5010518;28;20468;-66
2021/04/09 08:39:05;;;;;;;16.50;10.25;;;14.00;55.00;;;;;;5012766;28;20281;-66
2021/04/09 08:41:31;;;;;;;14.77;10.02;;;14.70;52.40;;;;;;5022447;28;20076;-63
2021/04/09 08:43:58;;;;;;;13.70;9.43;;;15.00;50.30;;;;;;5039166;28;20120;-63
2021/04/09 08:46:24;;;;;;;14.63;9.60;;;15.20;49.70;;;;;;5046494;28;20033;-63
2021/04/09 08:48:52;;;;;;;14.32;9.25;;;15.10;48.80;;;;;;5016859;28;20057;-69
2021/04/09 08:51:22;;;;;;;15.85;10.00;;;15.10;48.80;;;;;;5027639;28;20606;-70
2021/04/09 08:53:48;;;;;;;;;;;15.40;47.80;;;;;;5048012;28;20123;-69
2021/04/09 08:56:36;;;;;;;15.82;9.82;;;15.20;46.80;;;;;;5033921;28;19917;-68
2021/04/09 08:59:03;;;;;;;15.75;9.95;;;15.10;47.70;;;;;;5041604;28;20041;-68
2021/04/09 09:01:30;;;;;;;16.08;9.95;;;14.90;46.80;;;;;;5043082;28;20634;-68
2021/04/09 09:04:21;;;;;;;15.07;9.27;;;14.50;45.80;;;;;;5017079;28;20048;-68
2021/04/09 09:06:49;;;;;;;15.88;9.20;;;14.00;46.70;;;;;;5009250;28;20041;-69
2021/04/09 09:09:29;;;;;;;16.58;10.00;;;13.90;48.00;;;;;;5005064;28;20099;-69
2021/04/09 09:12:02;;;;;;;13.90;9.65;;;14.00;47.40;;;;;;4993413;28;20038;-62
2021/04/09 09:14:34;;;;;;;16.25;9.27;;;13.70;46.60;;;;;;5000307;28;20087;-62
2021/04/09 09:17:20;;;;;;;15.38;9.65;;;13.30;47.30;;;;;;4995359;28;20440;-62
2021/04/09 09:19:47;;;;;;;14.68;9.48;;;13.30;47.90;;;;;;4986118;28;20049;-62
2021/04/09 09:22:15;;;;;;;14.13;9.32;;;13.40;48.30;;;;;;4989727;28;20042;-63
2021/04/09 09:25:02;;;;;;;17.13;9.52;;;13.70;49.20;;;;;;5011343;28;20490;-62
2021/04/09 09:27:48;;;;;;;16.67;9.40;;;14.00;47.50;;;;;;5022210;28;20071;-63
2021/04/09 09:30:36;;;;;;;17.05;9.73;;;14.30;47.70;;;;;;5016546;28;20045;-62
2021/04/09 09:33:20;;;;;;;14.25;8.50;;;15.40;48.20;;;;;;5022409;28;20490;-62
2021/04/09 09:36:06;;;;;;;14.93;8.52;;;16.80;46.70;;;;;;5009876;28;20049;-63
2021/04/09 09:38:51;;;;;;;12.68;8.30;;;17.60;44.50;;;;;;5009479;28;20042;-62
2021/04/09 09:41:42;;;;;;;14.25;8.75;;;17.80;43.00;;;;;;5008226;28;20100;-62
2021/04/09 09:44:50;;;;;;;13.05;8.50;;;18.10;42.60;;;;;;4998731;28;20399;-63
2021/04/09 09:47:16;;;;;;;15.77;8.68;;;17.60;41.40;;;;;;4932286;29;20039;-63
2021/04/09 09:50:00;;;;;;;14.48;8.63;;;17.40;42.50;;;;;;4942473;29;20045;-63
2021/04/09 09:52:52;;;;;;;12.23;8.18;;;17.60;42.60;;;;;;4996528;28;20064;-63
2021/04/09 09:55:37;;;;;;;15.63;8.60;;;17.60;41.50;;;;;;5029866;28;20151;-63
2021/04/09 09:58:23;;;;;;;15.45;8.20;;;17.20;40.70;;;;;;5030270;28;20057;-63
2021/04/09 10:00:56;;;;;;;13.85;8.05;;;16.90;41.80;;;;;;5012558;28;20037;-63
2021/04/09 10:03:36;;;;;;;13.15;8.15;;;16.80;42.30;;;;;;5030236;28;20086;-63
2021/04/09 10:06:11;;;;;;;13.10;8.03;;;16.60;41.30;;;;;;5021752;28;20033;-68
2021/04/09 10:08:39;;;;;;;11.50;7.82;;;16.10;41.00;;;;;;5013251;28;20269;-64
2021/04/09 10:11:08;;;;;;;13.43;9.13;;;15.50;41.40;;;;;;5008962;28;20037;-62
2021/04/09 10:13:37;;;;;;;17.80;8.63;;;14.90;42.30;;;;;;5008956;28;20046;-64
2021/04/09 10:16:10;;;;;;;13.68;8.30;;;14.20;42.80;;;;;;5008535;28;20034;-68
2021/04/09 10:18:39;;;;;;;13.82;8.57;;;13.60;43.90;;;;;;5033517;28;20123;-65
2021/04/09 10:21:28;;;;;;;15.38;8.52;;;13.30;45.40;;;;;;5009553;28;20041;-65
2021/04/09 10:24:02;;;;;;;14.93;8.55;;;13.20;45.80;;;;;;5009324;28;20038;-65
2021/04/09 10:26:29;;;;;;;12.52;8.18;;;13.00;46.20;;;;;;5008240;28;20038;-64
2021/04/09 10:28:55;;;;;;;13.98;8.70;;;12.90;46.50;;;;;;5003811;28;20042;-65
2021/04/09 10:31:22;;;;;;;16.02;9.10;;;12.70;47.20;;;;;;5009238;28;20038;-64
2021/04/09 10:33:53;;;;;;;18.08;9.25;;;12.70;47.80;;;;;;5009848;28;20038;-65
2021/04/09 10:36:30;;;;;;;13.25;8.57;;;12.80;48.30;;;;;;5009446;28;20462;-64
2021/04/09 10:39:15;;;;;;;13.75;8.20;;;12.90;48.10;;;;;;5013313;28;20050;-65
2021/04/09 10:41:46;;;;;;;12.77;8.30;;;13.00;48.60;;;;;;5012979;28;20041;-65
2021/04/09 10:44:24;;;;;;;12.75;7.90;;;13.20;48.50;;;;;;5010614;28;20083;-69
2021/04/09 10:46:55;;;;;;;13.95;8.68;;;13.50;48.40;;;;;;5011183;28;20064;-68
2021/04/09 10:49:22;;;;;;;;;;;13.70;48.20;;;;;;5013358;28;20099;-68
2021/04/09 10:51:57;;;;;;;13.90;8.10;;;14.10;48.60;;;;;;5010907;28;20416;-69
2021/04/09 10:54:27;;;;;;;13.07;7.82;;;14.50;48.00;;;;;;5013189;28;20045;-68
2021/04/09 10:56:59;;;;;;;12.55;7.88;;;14.80;46.90;;;;;;5011371;28;20057;-69
2021/04/09 10:59:26;;;;;;;14.18;8.20;;;14.70;46.30;;;;;;5012548;28;20065;-67
2021/04/09 11:01:53;;;;;;;11.60;7.78;;;14.60;46.40;;;;;;5012195;28;20030;-67
2021/04/09 11:04:19;;;;;;;13.05;8.38;;;14.60;46.60;;;;;;5011528;28;20529;-69
2021/04/09 11:07:08;;;;;;;15.13;8.13;;;14.40;46.00;;;;;;5010102;28;20516;-69
2021/04/09 11:09:44;;;;;;;12.43;7.93;;;14.10;45.90;;;;;;4997742;28;20034;-69
2021/04/09 11:12:24;;;;;;;13.13;8.20;;;13.70;47.10;;;;;;5011908;28;20041;-65
2021/04/09 11:15:11;;;;;;;12.10;7.90;;;13.70;47.30;;;;;;5012909;28;20069;-67
2021/04/09 11:17:51;;;;;;;12.20;7.47;;;13.70;47.80;;;;;;4998187;28;20038;-68
2021/04/09 11:20:27;;;;;;;11.98;7.70;;;13.70;47.90;;;;;;5012631;28;20092;-67
2021/04/09 11:23:10;;;;;;;12.82;7.60;;;13.80;47.70;;;;;;5012469;28;20483;-67
2021/04/09 11:25:38;;;;;;;13.80;7.95;;;13.80;47.70;;;;;;4992158;28;20513;-68
2021/04/09 11:28:05;;;;;;;13.07;7.30;;;13.70;47.50;;;;;;4992909;28;20403;-69
2021/04/09 11:30:36;;;;;;;14.93;7.40;;;13.50;47.90;;;;;;4991539;28;20065;-69
2021/04/09 11:33:03;;;;;;;11.90;7.10;;;13.40;47.80;;;;;;5002260;28;20037;-68
2021/04/09 11:35:35;;;;;;;14.73;6.95;;;13.30;48.40;;;;;;5025937;28;20341;-66
2021/04/09 11:38:06;;;;;;;13.73;7.35;;;13.40;49.00;;;;;;5009376;28;20064;-68
2021/04/09 11:40:33;;;;;;;14.32;7.50;;;13.60;48.90;;;;;;5010716;28;20104;-67
2021/04/09 11:42:59;;;;;;;11.77;6.38;;;13.60;48.40;;;;;;4994295;28;20485;-68
2021/04/09 11:45:37;;;;;;;11.30;6.82;;;13.80;48.90;;;;;;5011413;28;20061;-69
2021/04/09 11:48:03;;;;;;;13.23;7.10;;;14.10;48.80;;;;;;5007213;28;20052;-64
2021/04/09 11:50:28;;;;;;;13.85;6.60;;;14.40;48.70;;;;;;5010089;28;20045;-66
2021/04/09 11:53:04;;;;;;;11.60;6.35;;;14.90;48.50;;;;;;5009739;28;20038;-66
2021/04/09 11:55:39;;;;;;;11.68;6.80;;;16.00;48.60;;;;;;5011412;28;20057;-65
2021/04/09 11:58:23;;;;;;;12.35;7.18;;;16.40;45.70;;;;;;5010072;28;20046;-65
2021/04/09 12:00:58;;;;;;;11.43;7.03;;;16.10;45.00;;;;;;4992180;28;20030;-65
2021/04/09 12:03:43;;;;;;;14.05;7.40;;;15.70;44.70;;;;;;5008915;28;20041;-65
2021/04/09 12:06:16;;;;;;;13.70;7.30;;;15.10;44.60;;;;;;5010385;28;20046;-65
2021/04/09 12:08:43;;;;;;;13.70;7.28;;;14.70;45.50;;;;;;5011990;28;20052;-65
2021/04/09 12:11:09;;;;;;;12.43;7.30;;;14.30;45.90;;;;;;4993710;28;20072;-64
2021/04/09 12:13:44;;;;;;;10.73;6.95;;;14.00;46.70;;;;;;5010541;28;20038;-63
2021/04/09 12:16:09;;;;;;;11.15;7.20;;;13.80;46.60;;;;;;5010274;28;20053;-62
2021/04/09 12:18:35;;;;;;;12.27;7.30;;;13.60;47.20;;;;;;5011698;28;20070;-68
2021/04/09 12:21:02;;;;;;;11.52;6.88;;;13.50;48.10;;;;;;5008449;28;20041;-68
2021/04/09 12:23:28;;;;;;;9.52;6.10;;;13.50;48.10;;;;;;5009310;28;20077;-67
2021/04/09 12:25:58;;;;;;;11.05;5.93;;;13.60;48.60;;;;;;5011015;28;20092;-69
2021/04/09 12:28:24;;;;;;;10.60;6.35;;;13.70;48.50;;;;;;5010384;28;20069;-66
2021/04/09 12:30:51;;;;;;;11.23;6.43;;;13.90;48.30;;;;;;5010251;28;20489;-68
2021/04/09 12:33:18;;;;;;;11.05;6.15;;;13.80;47.70;;;;;;5010980;28;20548;-67
2021/04/09 12:35:44;;;;;;;12.02;6.40;;;13.50;47.80;;;;;;5007317;28;20077;-67
2021/04/09 12:38:09;;;;;;;11.35;6.10;;;13.30;48.30;;;;;;5008726;28;20057;-69
2021/04/09 12:40:35;;;;;;;11.68;6.13;;;13.20;48.50;;;;;;4989783;28;20120;-69
2021/04/09 12:43:01;;;;;;;12.52;6.22;;;13.00;48.90;;;;;;4991187;28;20068;-67
2021/04/09 12:45:27;;;;;;;11.90;6.20;;;12.80;49.10;;;;;;5006246;28;20426;-68
2021/04/09 12:47:53;;;;;;;9.73;6.05;;;12.70;49.50;;;;;;5005850;28;20084;-68
2021/04/09 12:50:18;;;;;;;10.20;6.07;;;12.40;49.60;;;;;;5011140;28;20041;-68
2021/04/09 12:52:44;;;;;;;11.60;6.93;;;12.10;50.00;;;;;;5009029;28;20045;-71